createdAt,value
2022-11-08T00:03:19.979Z,100875.41
2022-11-08T00:09:00.053Z,100872.88
2022-11-08T00:14:21.698Z,100865.88
2022-11-08T00:19:44.264Z,100862.53
2022-11-08T00:25:06.428Z,100856.97
2022-11-08T00:30:28.096Z,100863.63
2022-11-08T00:35:49.761Z,100857.50
2022-11-08T00:41:12.324Z,100843.88
2022-11-08T00:46:34.006Z,100833.31
2022-11-08T00:51:55.675Z,100840.16
2022-11-08T00:57:17.324Z,100829.94
2022-11-08T01:02:39.058Z,100825.72
2022-11-08T01:08:00.754Z,100816.84
2022-11-08T01:13:22.943Z,100806.84
2022-11-08T01:18:45.395Z,100813.47
2022-11-08T01:24:07.702Z,100800.09
2022-11-08T01:29:29.316Z,100805.66
2022-11-08T01:34:51.189Z,100794.56
2022-11-08T01:40:13.558Z,100792.88
2022-11-08T01:46:12.897Z,100788.44
2022-11-08T01:51:41.766Z,100775.06
2022-11-08T01:57:07.293Z,100765.09
2022-11-08T02:02:29.181Z,100753.44
2022-11-08T02:08:05.231Z,100734.63
2022-11-08T02:13:29.847Z,100728.50
2022-11-08T02:18:51.589Z,100719.59
2022-11-08T02:24:14.323Z,100702.13
2022-11-08T02:29:36.324Z,100694.06
2022-11-08T02:34:59.465Z,100691.53
2022-11-08T02:40:21.092Z,100691.53
2022-11-08T02:45:42.782Z,100673.22
2022-11-08T02:51:04.478Z,100668.78
2022-11-08T02:56:26.153Z,100661.28
2022-11-08T03:01:47.944Z,100656.84
2022-11-08T03:07:09.778Z,100645.78
2022-11-08T03:12:31.432Z,100639.66
2022-11-08T03:17:53.480Z,100630.25
2022-11-08T03:23:15.637Z,100613.06
2022-11-08T03:28:37.296Z,100597.53
2022-11-08T03:33:58.934Z,100577.28
2022-11-08T03:39:20.676Z,100578.38
2022-11-08T03:44:42.342Z,100566.47
2022-11-08T03:50:04.509Z,100555.41
2022-11-08T03:55:27.812Z,100550.97
2022-11-08T04:00:49.465Z,100544.81
2022-11-08T04:06:11.105Z,100528.47
2022-11-08T04:11:51.054Z,100509.91
2022-11-08T04:17:12.797Z,100500.78
2022-11-08T04:22:34.439Z,100493.81
2022-11-08T04:27:56.164Z,100499.34
2022-11-08T04:33:17.804Z,100492.16
2022-11-08T04:38:39.558Z,100483.84
2022-11-08T04:44:01.362Z,100492.16
2022-11-08T04:49:23.004Z,100496.84
2022-11-08T04:54:45.599Z,100479.41
2022-11-08T05:00:07.860Z,100484.94
2022-11-08T05:05:29.515Z,100481.31
2022-11-08T05:10:51.181Z,100487.72
2022-11-08T05:16:15.291Z,100479.41
2022-11-08T05:21:55.913Z,100469.41
2022-11-08T05:27:17.577Z,100468.84
2022-11-08T05:32:39.256Z,100466.06
2022-11-08T05:38:00.936Z,100469.91
2022-11-08T05:43:22.587Z,100461.63
2022-11-08T05:48:45.003Z,100468.84
2022-11-08T05:54:08.213Z,100459.94
2022-11-08T05:59:30.300Z,100459.94
2022-11-08T06:04:51.937Z,100465.75
2022-11-08T06:10:13.783Z,100457.44
2022-11-08T06:15:35.493Z,100446.38
2022-11-08T06:21:01.042Z,100449.97
2022-11-08T06:26:23.063Z,100450.47
2022-11-08T06:31:44.697Z,100455.50
2022-11-08T06:37:06.400Z,100456.59
2022-11-08T06:42:28.074Z,100461.28
2022-11-08T06:47:49.678Z,100458.03
2022-11-08T06:53:13.832Z,100466.34
2022-11-08T06:58:35.476Z,100468.34
2022-11-08T07:03:57.112Z,100481.22
2022-11-08T07:09:18.956Z,100470.16
2022-11-08T07:14:40.633Z,100469.13
2022-11-08T07:20:02.336Z,100464.78
2022-11-08T07:25:25.282Z,100467.59
2022-11-08T07:30:48.560Z,100455.50
2022-11-08T07:36:10.235Z,100454.81
2022-11-08T07:41:31.940Z,100444.44
2022-11-08T07:46:53.605Z,100449.88
2022-11-08T07:52:15.291Z,100456.59
2022-11-08T07:57:36.931Z,100468.19
2022-11-08T08:03:00.619Z,100476.50
2022-11-08T08:08:22.754Z,100493.31
2022-11-08T08:13:44.397Z,100468.63
2022-11-08T08:19:06.189Z,100472.75
2022-11-08T08:24:27.873Z,100465.19
2022-11-08T08:29:50.665Z,100473.75
2022-11-08T08:35:12.915Z,100455.72
2022-11-08T08:40:34.794Z,100467.63
2022-11-08T08:46:01.621Z,100474.59
2022-11-08T08:51:23.387Z,100465.75
2022-11-08T08:56:45.031Z,100453.53
2022-11-08T09:02:06.647Z,100447.13
2022-11-08T09:07:28.354Z,100442.47
2022-11-08T09:12:50.928Z,100427.75
2022-11-08T09:18:12.750Z,100433.06
2022-11-08T09:23:34.452Z,100436.38
2022-11-08T09:28:56.095Z,100457.44
2022-11-08T09:34:20.738Z,100461.91
2022-11-08T09:39:43.465Z,100472.97
2022-11-08T09:45:22.251Z,100454.44
2022-11-08T09:50:46.577Z,100469.06
2022-11-08T09:56:33.696Z,100465.44
2022-11-08T10:01:55.419Z,100480.63
2022-11-08T10:07:33.266Z,100489.78
2022-11-08T10:13:12.962Z,100487.59
2022-11-08T10:18:45.810Z,100492.03
2022-11-08T10:24:21.579Z,100496.22
2022-11-08T10:29:46.662Z,100497.91
2022-11-08T10:35:25.586Z,100500.19
2022-11-08T10:41:03.255Z,100484.16
2022-11-08T10:46:36.549Z,100486.94
2022-11-08T10:52:13.079Z,100488.63
2022-11-08T10:57:38.985Z,100483.66
2022-11-08T11:03:16.462Z,100467.03
2022-11-08T11:08:49.812Z,100473.72
2022-11-08T11:14:22.050Z,100468.19
2022-11-08T11:19:53.966Z,100447.47
2022-11-08T11:25:21.685Z,100449.16
2022-11-08T11:30:47.466Z,100449.97
2022-11-08T11:36:15.277Z,100448.28
2022-11-08T11:41:48.875Z,100441.06
2022-11-08T11:47:19.480Z,100439.41
2022-11-08T11:52:41.228Z,100443.25
2022-11-08T11:58:20.623Z,100437.72
2022-11-08T12:04:00.652Z,100450.97
2022-11-08T12:09:40.304Z,100445.97
2022-11-08T12:15:23.268Z,100425.16
2022-11-08T12:21:02.017Z,100415.41
2022-11-08T12:27:14.277Z,100413.25
2022-11-08T12:32:55.050Z,100410.47
2022-11-08T12:38:32.174Z,100415.25
2022-11-08T12:44:30.670Z,100423.56
2022-11-08T12:50:11.580Z,100414.41
2022-11-08T12:55:37.039Z,100407.44
2022-11-08T13:01:05.276Z,100402.19
2022-11-08T13:06:35.558Z,100400.00
2022-11-08T13:12:18.733Z,100400.81
2022-11-08T13:17:40.448Z,100407.44
2022-11-08T13:23:11.517Z,100398.31
2022-11-08T13:28:45.753Z,100392.78
2022-11-08T13:34:21.443Z,100396.88
2022-11-08T13:40:04.763Z,100394.09
2022-11-08T13:45:33.316Z,100394.09
2022-11-08T13:51:18.586Z,100376.63
2022-11-08T13:56:47.359Z,100369.41
2022-11-08T14:02:24.009Z,100373.28
2022-11-08T14:07:54.842Z,100373.81
2022-11-08T14:13:22.520Z,100372.13
2022-11-08T14:18:45.965Z,100376.00
2022-11-08T14:24:17.339Z,100385.97
2022-11-08T14:29:39.125Z,100387.31
2022-11-08T14:35:19.700Z,100392.63
2022-11-08T14:40:49.509Z,100378.19
2022-11-08T14:46:13.800Z,100380.38
2022-11-08T14:51:35.570Z,100380.38
2022-11-08T14:56:57.231Z,100367.03
2022-11-08T15:02:19.049Z,100367.03
2022-11-08T15:07:40.807Z,100358.72
2022-11-08T15:13:02.528Z,100359.81
2022-11-08T15:18:31.264Z,100352.38
2022-11-08T15:23:54.687Z,100350.97
2022-11-08T15:29:19.651Z,100326.84
2022-11-08T15:34:42.057Z,100332.41
2022-11-08T15:40:05.806Z,100329.91
2022-11-08T15:45:32.460Z,100332.66
2022-11-08T15:50:58.079Z,100339.28
2022-11-08T15:56:19.930Z,100338.13
2022-11-08T16:01:52.796Z,100324.88
2022-11-08T16:07:14.537Z,100331.78
2022-11-08T16:12:37.803Z,100336.44
2022-11-08T16:18:00.506Z,100341.16
2022-11-08T16:23:22.163Z,100346.94
2022-11-08T16:28:44.619Z,100350.81
2022-11-08T16:34:06.308Z,100345.53
2022-11-08T16:39:28.513Z,100345.25
2022-11-08T16:44:50.230Z,100352.75
2022-11-08T16:50:26.026Z,100344.16
2022-11-08T16:55:48.491Z,100345.16
2022-11-08T17:01:18.064Z,100334.44
2022-11-08T17:06:39.968Z,100344.19
2022-11-08T17:12:01.698Z,100334.97
2022-11-08T17:17:23.531Z,100337.56
2022-11-08T17:22:46.127Z,100339.81
2022-11-08T17:28:07.832Z,100337.63
2022-11-08T17:33:29.482Z,100322.41
2022-11-08T17:38:51.187Z,100324.41
2022-11-08T17:44:12.958Z,100336.06
2022-11-08T17:49:37.594Z,100324.41
2022-11-08T17:55:01.643Z,100332.22
2022-11-08T18:00:23.351Z,100338.34
2022-11-08T18:05:56.098Z,100344.69
2022-11-08T18:11:17.843Z,100345.50
2022-11-08T18:16:39.503Z,100355.19
2022-11-08T18:22:01.201Z,100362.66
2022-11-08T18:27:22.878Z,100359.38
2022-11-08T18:32:44.520Z,100362.16
2022-11-08T18:38:06.199Z,100362.72
2022-11-08T18:43:28.350Z,100354.41
2022-11-08T18:48:50.913Z,100357.75
2022-11-08T18:54:12.580Z,100354.19
2022-11-08T18:59:34.294Z,100361.16
2022-11-08T19:04:56.732Z,100356.84
2022-11-08T19:10:18.412Z,100366.38
2022-11-08T19:15:40.131Z,100348.66
2022-11-08T19:21:25.489Z,100360.69
2022-11-08T19:26:47.365Z,100352.69
2022-11-08T19:32:09.117Z,100351.31
2022-11-08T19:37:30.755Z,100359.38
2022-11-08T19:42:52.447Z,100358.88
2022-11-08T19:48:14.067Z,100360.84
2022-11-08T19:53:35.715Z,100367.56
2022-11-08T19:59:01.124Z,100370.88
2022-11-08T20:04:23.267Z,100372.25
2022-11-08T20:09:44.922Z,100365.56
2022-11-08T20:15:07.493Z,100368.34
2022-11-08T20:20:30.900Z,100371.66
2022-11-08T20:25:52.565Z,100377.47
2022-11-08T20:31:23.021Z,100385.47
2022-11-08T20:36:45.084Z,100391.50
2022-11-08T20:42:06.828Z,100405.09
2022-11-08T20:47:28.494Z,100394.78
2022-11-08T20:52:50.187Z,100409.19
2022-11-08T20:58:11.866Z,100406.97
2022-11-08T21:03:34.353Z,100417.75
2022-11-08T21:09:00.380Z,100419.69
2022-11-08T21:14:24.806Z,100413.88
2022-11-08T21:19:48.390Z,100428.59
2022-11-08T21:25:10.077Z,100426.66
2022-11-08T21:30:31.846Z,100428.59
2022-11-08T21:35:55.870Z,100438.03
2022-11-08T21:41:17.588Z,100433.53
2022-11-08T21:46:39.301Z,100437.66
2022-11-08T21:52:02.314Z,100437.31
2022-11-08T21:57:24.019Z,100451.41
2022-11-08T22:02:45.738Z,100444.97
2022-11-08T22:08:07.392Z,100436.88
2022-11-08T22:13:29.114Z,100440.44
2022-11-08T22:19:04.213Z,100438.72
2022-11-08T22:24:26.729Z,100442.00
2022-11-08T22:29:48.398Z,100432.81
2022-11-08T22:35:10.104Z,100430.00
2022-11-08T22:40:31.850Z,100431.09
2022-11-08T22:45:53.518Z,100425.78
2022-11-08T22:51:15.690Z,100429.38
2022-11-08T22:56:38.326Z,100435.19
2022-11-08T23:01:59.992Z,100443.78
2022-11-08T23:07:21.630Z,100444.63
2022-11-08T23:13:01.714Z,100439.59
2022-11-08T23:18:24.192Z,100437.34
2022-11-08T23:24:04.133Z,100438.44
2022-11-08T23:29:44.404Z,100441.47
2022-11-08T23:35:06.195Z,100444.53
2022-11-08T23:40:46.064Z,100432.56
2022-11-08T23:46:09.979Z,100428.41
2022-11-08T23:51:31.744Z,100443.34
2022-11-08T23:56:53.462Z,100434.47
